createdAt,value
2018-01-14T00:00:58.214Z,7.40
2018-01-14T00:03:25.834Z,5.80
2018-01-14T00:05:53.394Z,5.30
2018-01-14T00:08:21.006Z,7.97
2018-01-14T00:10:48.578Z,7.30
2018-01-14T00:13:16.277Z,7.40
2018-01-14T00:15:43.951Z,3.60
2018-01-14T00:18:11.598Z,4.20
2018-01-14T00:20:39.166Z,7.33
2018-01-14T00:23:06.772Z,6.50
2018-01-14T00:25:34.354Z,4.03
2018-01-14T00:28:01.976Z,5.60
2018-01-14T00:30:29.955Z,7.60
2018-01-14T00:32:57.573Z,5.70
2018-01-14T00:35:25.287Z,7.50
2018-01-14T00:37:52.899Z,8.90
2018-01-14T00:40:20.476Z,8.10
2018-01-14T00:42:48.085Z,9.70
2018-01-14T00:45:15.766Z,9.00
2018-01-14T00:47:43.346Z,8.73
2018-01-14T00:50:11.010Z,8.50
2018-01-14T00:52:38.629Z,8.67
2018-01-14T00:55:06.214Z,9.50
2018-01-14T00:57:33.793Z,8.87
2018-01-14T01:00:01.408Z,7.97
2018-01-14T01:02:29.020Z,9.10
2018-01-14T01:04:56.592Z,10.40
2018-01-14T01:07:24.233Z,9.07
2018-01-14T01:09:51.817Z,8.97
2018-01-14T01:12:19.554Z,8.47
2018-01-14T01:14:47.210Z,8.60
2018-01-14T01:17:14.789Z,9.77
2018-01-14T01:19:42.547Z,9.37
2018-01-14T01:22:10.144Z,10.20
2018-01-14T01:24:37.867Z,10.23
2018-01-14T01:27:05.430Z,9.80
2018-01-14T01:29:33.044Z,6.80
2018-01-14T01:32:00.614Z,9.27
2018-01-14T01:34:28.181Z,9.43
2018-01-14T01:36:55.848Z,8.80
2018-01-14T01:39:23.399Z,10.10
2018-01-14T01:41:50.962Z,10.60
2018-01-14T01:44:18.572Z,9.07
2018-01-14T01:46:46.141Z,10.73
2018-01-14T01:49:13.693Z,8.83
2018-01-14T01:51:41.322Z,9.80
2018-01-14T01:54:08.889Z,5.23
2018-01-14T01:56:36.670Z,8.67
2018-01-14T01:59:04.289Z,8.90
2018-01-14T02:01:31.859Z,9.40
2018-01-14T02:03:59.430Z,10.40
2018-01-14T02:06:27.087Z,11.73
2018-01-14T02:08:54.652Z,10.40
2018-01-14T02:11:22.214Z,9.87
2018-01-14T02:13:49.836Z,9.67
2018-01-14T02:16:17.540Z,8.83
2018-01-14T02:18:45.102Z,10.30
2018-01-14T02:21:12.728Z,10.23
2018-01-14T02:23:40.303Z,11.90
2018-01-14T02:26:07.982Z,9.20
2018-01-14T02:28:35.648Z,7.97
2018-01-14T02:31:03.324Z,10.70
2018-01-14T02:33:30.987Z,10.47
2018-01-14T02:35:58.597Z,9.30
2018-01-14T02:38:26.167Z,9.83
2018-01-14T02:40:53.727Z,6.10
2018-01-14T02:43:21.331Z,10.27
2018-01-14T02:45:48.913Z,9.97
2018-01-14T02:48:16.491Z,9.13
2018-01-14T02:50:44.097Z,10.60
2018-01-14T02:53:11.647Z,9.97
2018-01-14T02:55:39.230Z,9.70
2018-01-14T02:58:06.843Z,7.70
2018-01-14T03:00:34.415Z,10.67
2018-01-14T03:03:01.993Z,9.83
2018-01-14T03:05:29.590Z,9.37
2018-01-14T03:07:57.151Z,7.93
2018-01-14T03:10:24.712Z,8.70
2018-01-14T03:12:52.316Z,10.27
2018-01-14T03:15:20.012Z,7.47
2018-01-14T03:17:47.656Z,10.00
2018-01-14T03:20:15.278Z,10.27
2018-01-14T03:22:42.860Z,9.10
2018-01-14T03:25:10.489Z,9.73
2018-01-14T03:27:38.306Z,10.33
2018-01-14T03:30:05.986Z,11.13
2018-01-14T03:32:33.577Z,10.90
2018-01-14T03:35:01.407Z,9.53
2018-01-14T03:37:28.987Z,11.33
2018-01-14T03:39:56.559Z,12.00
2018-01-14T03:42:24.297Z,10.07
2018-01-14T03:44:51.879Z,12.13
2018-01-14T03:47:19.449Z,11.80
2018-01-14T03:49:47.064Z,9.30
2018-01-14T03:52:14.739Z,10.80
2018-01-14T03:54:42.419Z,11.63
2018-01-14T03:57:10.023Z,10.90
2018-01-14T03:59:37.610Z,10.00
2018-01-14T04:02:05.380Z,9.37
2018-01-14T04:04:33.004Z,11.00
2018-01-14T04:07:00.592Z,12.40
2018-01-14T04:09:28.164Z,13.07
2018-01-14T04:11:55.825Z,12.30
2018-01-14T04:14:23.499Z,11.00
2018-01-14T04:16:51.075Z,11.67
2018-01-14T04:19:20.655Z,12.00
2018-01-14T04:21:48.227Z,10.67
2018-01-14T04:24:15.798Z,12.00
2018-01-14T04:26:43.411Z,11.90
2018-01-14T04:29:11.102Z,12.97
2018-01-14T04:31:38.684Z,16.90
2018-01-14T04:34:06.419Z,13.50
2018-01-14T04:36:34.011Z,12.90
2018-01-14T04:39:01.596Z,13.40
2018-01-14T04:41:29.213Z,12.50
2018-01-14T04:43:56.875Z,11.90
2018-01-14T04:46:24.429Z,15.63
2018-01-14T04:48:52.048Z,18.20
2018-01-14T04:51:19.662Z,21.60
2018-01-14T04:53:47.234Z,12.90
2018-01-14T04:56:14.842Z,13.27
2018-01-14T04:58:42.419Z,11.50
2018-01-14T05:01:10.100Z,13.63
2018-01-14T05:03:37.724Z,12.63
2018-01-14T05:06:05.306Z,13.80
2018-01-14T05:08:32.865Z,12.53
2018-01-14T05:11:00.525Z,11.13
2018-01-14T05:13:28.111Z,11.73
2018-01-14T05:15:55.701Z,13.67
2018-01-14T05:18:23.330Z,11.87
2018-01-14T05:20:50.897Z,12.73
2018-01-14T05:23:18.646Z,10.93
2018-01-14T05:25:46.265Z,11.67
2018-01-14T05:28:13.864Z,11.07
2018-01-14T05:30:41.440Z,11.07
2018-01-14T05:33:09.059Z,11.60
2018-01-14T05:35:36.633Z,13.27
2018-01-14T05:38:04.218Z,12.97
2018-01-14T05:40:31.871Z,11.10
2018-01-14T05:42:59.441Z,13.93
2018-01-14T05:45:27.023Z,12.30
2018-01-14T05:47:54.635Z,11.27
2018-01-14T05:50:22.207Z,12.90
2018-01-14T05:52:49.802Z,13.50
2018-01-14T05:55:17.433Z,13.07
2018-01-14T05:57:45.107Z,11.83
2018-01-14T06:00:12.772Z,12.57
2018-01-14T06:02:40.433Z,12.70
2018-01-14T06:05:08.002Z,11.80
2018-01-14T06:07:35.744Z,13.60
2018-01-14T06:10:03.422Z,12.73
2018-01-14T06:12:31.061Z,12.00
2018-01-14T06:14:58.729Z,11.07
2018-01-14T06:17:26.322Z,12.43
2018-01-14T06:19:53.889Z,11.67
2018-01-14T06:22:21.464Z,11.60
2018-01-14T06:24:49.066Z,12.23
2018-01-14T06:27:16.839Z,13.60
2018-01-14T06:29:44.403Z,13.30
2018-01-14T06:32:12.156Z,13.43
2018-01-14T06:34:39.746Z,11.70
2018-01-14T06:37:07.303Z,12.80
2018-01-14T06:39:34.920Z,13.23
2018-01-14T06:42:02.631Z,11.33
2018-01-14T06:44:30.253Z,13.03
2018-01-14T06:46:57.943Z,13.70
2018-01-14T06:49:25.553Z,11.73
2018-01-14T06:51:53.124Z,11.37
2018-01-14T06:54:20.742Z,10.73
2018-01-14T06:56:48.306Z,11.50
2018-01-14T06:59:15.861Z,12.23
2018-01-14T07:01:43.605Z,12.80
2018-01-14T07:04:11.169Z,12.10
2018-01-14T07:06:38.759Z,10.63
2018-01-14T07:09:06.381Z,12.47
2018-01-14T07:11:33.925Z,11.30
2018-01-14T07:14:01.486Z,11.37
2018-01-14T07:16:29.082Z,12.13
2018-01-14T07:18:56.654Z,13.70
2018-01-14T07:21:24.230Z,11.60
2018-01-14T07:23:51.818Z,12.93
2018-01-14T07:26:19.495Z,12.83
2018-01-14T07:28:47.164Z,12.17
2018-01-14T07:31:14.768Z,11.50
2018-01-14T07:33:42.504Z,12.10
2018-01-14T07:36:10.061Z,12.87
2018-01-14T07:38:37.658Z,12.60
2018-01-14T07:41:05.284Z,13.80
2018-01-14T07:43:32.928Z,14.63
2018-01-14T07:46:00.600Z,14.30
2018-01-14T07:48:28.162Z,9.50
2018-01-14T07:50:55.752Z,10.80
2018-01-14T07:53:23.390Z,13.63
2018-01-14T07:55:50.965Z,15.73
2018-01-14T07:58:18.545Z,13.07
2018-01-14T08:00:46.160Z,14.33
2018-01-14T08:03:13.818Z,12.50
2018-01-14T08:05:41.499Z,14.00
2018-01-14T08:08:09.165Z,14.70
2018-01-14T08:10:36.796Z,13.67
2018-01-14T08:13:04.359Z,15.53
2018-01-14T08:15:31.952Z,14.13
2018-01-14T08:17:59.518Z,14.47
2018-01-14T08:20:27.088Z,13.70
2018-01-14T08:22:54.683Z,14.30
2018-01-14T08:25:22.381Z,13.43
2018-01-14T08:27:50.050Z,15.03
2018-01-14T08:30:17.642Z,13.70
2018-01-14T08:32:45.202Z,16.40
2018-01-14T08:35:12.772Z,19.33
2018-01-14T08:37:40.418Z,13.97
2018-01-14T08:40:07.998Z,16.70
2018-01-14T08:42:35.572Z,19.73
2018-01-14T08:45:03.275Z,16.93
2018-01-14T08:47:30.937Z,14.60
2018-01-14T08:49:58.499Z,28.37
2018-01-14T08:52:26.247Z,11.53
2018-01-14T08:54:53.810Z,11.10
2018-01-14T08:57:21.588Z,13.80
2018-01-14T08:59:49.222Z,17.70
2018-01-14T09:02:16.792Z,17.77
2018-01-14T09:04:44.557Z,19.50
2018-01-14T09:07:12.226Z,17.90
2018-01-14T09:09:39.796Z,15.37
2018-01-14T09:12:07.425Z,14.63
2018-01-14T09:14:35.037Z,21.60
2018-01-14T09:17:02.718Z,15.07
2018-01-14T09:19:30.287Z,16.10
2018-01-14T09:21:57.987Z,15.63
2018-01-14T09:24:25.648Z,14.70
2018-01-14T09:26:53.240Z,16.73
2018-01-14T09:29:20.887Z,15.50
2018-01-14T09:31:48.452Z,15.70
2018-01-14T09:34:16.016Z,15.60
2018-01-14T09:36:43.763Z,16.50
2018-01-14T09:39:11.430Z,17.50
2018-01-14T09:41:39.000Z,12.20
2018-01-14T09:44:06.612Z,13.60
2018-01-14T09:46:34.191Z,15.77
2018-01-14T09:49:01.776Z,13.30
2018-01-14T09:51:29.382Z,11.00
2018-01-14T09:53:56.963Z,10.50
2018-01-14T09:56:24.553Z,11.20
2018-01-14T09:58:52.184Z,13.33
2018-01-14T10:01:19.768Z,11.97
2018-01-14T10:03:47.360Z,11.10
2018-01-14T10:06:14.972Z,19.53
2018-01-14T10:08:42.544Z,11.23
2018-01-14T10:11:10.114Z,10.17
2018-01-14T10:13:37.715Z,15.47
2018-01-14T10:16:05.280Z,10.30
2018-01-14T10:18:32.837Z,10.17
2018-01-14T10:21:00.426Z,9.47
2018-01-14T10:23:27.986Z,8.30
2018-01-14T10:25:55.613Z,11.07
2018-01-14T10:28:23.205Z,9.00
2018-01-14T10:30:50.797Z,10.20
2018-01-14T10:33:18.362Z,8.67
2018-01-14T10:35:45.964Z,8.37
2018-01-14T10:38:13.675Z,8.00
2018-01-14T10:40:41.251Z,8.43
2018-01-14T10:43:08.874Z,8.63
2018-01-14T10:45:36.503Z,8.57
2018-01-14T10:48:04.065Z,7.27
2018-01-14T10:50:31.685Z,9.47
2018-01-14T10:53:00.174Z,8.00
2018-01-14T10:55:27.742Z,7.80
2018-01-14T10:57:55.368Z,8.77
2018-01-14T11:00:22.967Z,10.97
2018-01-14T11:02:50.542Z,8.07
2018-01-14T11:05:18.131Z,9.03
2018-01-14T11:07:45.703Z,8.10
2018-01-14T11:10:13.273Z,7.87
2018-01-14T11:12:40.906Z,5.20
2018-01-14T11:15:08.475Z,6.12
2018-01-14T11:17:36.119Z,7.20
2018-01-14T11:20:03.755Z,7.30
2018-01-14T11:22:31.441Z,7.60
2018-01-14T11:24:59.016Z,8.30
2018-01-14T11:27:26.598Z,7.47
2018-01-14T11:30:00.760Z,6.83
2018-01-14T11:32:28.406Z,7.70
2018-01-14T11:34:55.973Z,7.87
2018-01-14T11:37:23.553Z,7.20
2018-01-14T11:39:51.170Z,5.90
2018-01-14T11:42:18.734Z,8.90
2018-01-14T11:44:46.306Z,8.07
2018-01-14T11:47:13.923Z,7.70
2018-01-14T11:49:41.470Z,8.63
2018-01-14T11:52:09.033Z,6.93
2018-01-14T11:54:36.632Z,8.53
2018-01-14T11:57:04.241Z,5.70
2018-01-14T11:59:31.799Z,7.47
2018-01-14T12:01:59.363Z,8.87
2018-01-14T12:04:26.940Z,6.83
2018-01-14T12:06:54.503Z,7.73
2018-01-14T12:09:22.100Z,8.27
2018-01-14T12:11:49.650Z,7.90
2018-01-14T12:14:17.251Z,8.30
2018-01-14T12:16:44.853Z,9.30
2018-01-14T12:19:12.482Z,8.10
2018-01-14T12:21:40.050Z,8.60
2018-01-14T12:24:07.639Z,8.23
2018-01-14T12:26:35.214Z,7.70
2018-01-14T12:29:02.766Z,7.30
2018-01-14T12:31:30.380Z,5.43
2018-01-14T12:37:08.952Z,7.23
2018-01-14T12:39:36.505Z,7.00
2018-01-14T12:42:04.299Z,7.00
2018-01-14T12:44:31.924Z,4.30
2018-01-14T12:46:59.479Z,8.57
2018-01-14T12:49:27.103Z,9.90
2018-01-14T12:51:54.841Z,7.10
2018-01-14T12:54:22.468Z,8.27
2018-01-14T12:56:50.025Z,7.40
2018-01-14T12:59:17.604Z,8.23
2018-01-14T13:01:45.216Z,9.13
2018-01-14T13:04:12.776Z,6.60
2018-01-14T13:06:40.365Z,8.20
2018-01-14T13:09:07.901Z,8.83
2018-01-14T13:11:35.448Z,9.17
2018-01-14T13:14:03.313Z,9.80
2018-01-14T13:16:30.873Z,8.27
2018-01-14T13:18:58.427Z,8.47
2018-01-14T13:21:26.008Z,7.03
2018-01-14T13:23:53.561Z,8.30
2018-01-14T13:26:21.118Z,9.50
2018-01-14T13:28:48.713Z,7.97
2018-01-14T13:31:16.281Z,9.17
2018-01-14T13:33:43.873Z,9.87
2018-01-14T13:36:11.611Z,9.87
2018-01-14T13:38:39.163Z,8.40
2018-01-14T13:41:06.763Z,8.80
2018-01-14T13:43:34.372Z,9.90
2018-01-14T13:46:01.926Z,9.10
2018-01-14T13:48:29.484Z,7.73
2018-01-14T13:50:57.088Z,11.70
2018-01-14T13:53:24.653Z,9.67
2018-01-14T13:55:52.215Z,9.60
2018-01-14T13:58:19.807Z,10.77
2018-01-14T14:00:47.394Z,11.93
2018-01-14T14:03:15.038Z,9.57
2018-01-14T14:05:42.638Z,12.30
2018-01-14T14:08:10.187Z,13.00
2018-01-14T14:10:37.831Z,14.43
2018-01-14T14:13:05.448Z,10.03
2018-01-14T14:15:33.006Z,9.80
2018-01-14T14:18:00.635Z,10.77
2018-01-14T14:20:28.252Z,7.70
2018-01-14T14:22:55.821Z,8.40
2018-01-14T14:25:23.470Z,10.70
2018-01-14T14:27:51.087Z,6.13
2018-01-14T14:30:18.654Z,10.40
2018-01-14T14:32:46.259Z,8.80
2018-01-14T14:35:13.828Z,10.17
2018-01-14T14:37:41.390Z,11.60
2018-01-14T14:40:09.030Z,11.17
2018-01-14T14:42:36.611Z,9.93
2018-01-14T14:45:04.194Z,11.43
2018-01-14T14:47:31.790Z,8.97
2018-01-14T14:49:59.368Z,8.87
2018-01-14T14:52:26.934Z,9.03
2018-01-14T14:54:54.541Z,12.67
2018-01-14T14:57:22.266Z,13.43
2018-01-14T14:59:49.825Z,14.10
2018-01-14T15:02:17.407Z,14.10
2018-01-14T15:04:44.964Z,12.43
2018-01-14T15:07:12.527Z,9.40
2018-01-14T15:09:40.148Z,11.47
2018-01-14T15:12:07.728Z,13.00
2018-01-14T15:14:35.282Z,13.88
2018-01-14T15:17:02.899Z,14.27
2018-01-14T15:19:30.466Z,31.07
2018-01-14T15:21:58.034Z,15.90
2018-01-14T15:24:25.626Z,15.73
2018-01-14T15:26:53.197Z,15.52
2018-01-14T15:29:20.755Z,15.30
2018-01-14T15:31:48.399Z,14.90
2018-01-14T15:34:15.976Z,12.30
2018-01-14T15:36:43.543Z,17.43
2018-01-14T15:39:11.152Z,16.40
2018-01-14T15:41:38.732Z,15.13
2018-01-14T15:44:06.313Z,15.93
2018-01-14T15:46:33.911Z,10.60
2018-01-14T15:49:01.481Z,12.50
2018-01-14T15:51:29.132Z,12.37
2018-01-14T15:53:56.767Z,14.30
2018-01-14T15:56:24.326Z,11.97
2018-01-14T15:58:51.911Z,11.87
2018-01-14T16:01:19.542Z,10.05
2018-01-14T16:03:47.115Z,15.23
2018-01-14T16:06:14.689Z,8.07
2018-01-14T16:08:42.370Z,11.47
2018-01-14T16:11:09.985Z,14.03
2018-01-14T16:13:37.560Z,10.40
2018-01-14T16:16:05.511Z,16.15
2018-01-14T16:18:33.130Z,9.53
2018-01-14T16:21:00.751Z,12.03
2018-01-14T16:23:28.306Z,15.90
2018-01-14T16:25:56.028Z,15.02
2018-01-14T16:28:23.650Z,13.67
2018-01-14T16:30:51.226Z,14.10
2018-01-14T16:33:18.836Z,10.90
2018-01-14T16:35:46.869Z,15.10
2018-01-14T16:38:14.439Z,12.85
2018-01-14T16:40:42.048Z,14.33
2018-01-14T16:43:09.633Z,12.63
2018-01-14T16:45:37.230Z,15.37
2018-01-14T16:48:04.836Z,14.40
2018-01-14T16:50:32.424Z,12.10
2018-01-14T16:53:00.021Z,16.60
2018-01-14T16:55:27.650Z,11.33
2018-01-14T16:57:55.236Z,16.60
2018-01-14T17:00:22.871Z,13.38
2018-01-14T17:05:24.830Z,13.50
2018-01-14T17:07:52.425Z,16.03
2018-01-14T17:10:20.124Z,16.60
2018-01-14T17:12:47.777Z,19.20
2018-01-14T17:15:15.397Z,18.43
2018-01-14T17:17:42.942Z,11.60
2018-01-14T17:20:10.526Z,11.87
2018-01-14T17:22:38.093Z,18.30
2018-01-14T17:25:05.698Z,13.20
2018-01-14T17:27:33.299Z,14.10
2018-01-14T17:30:00.876Z,20.37
2018-01-14T17:32:28.491Z,20.12
2018-01-14T17:34:56.093Z,19.53
2018-01-14T17:37:23.654Z,16.70
2018-01-14T17:39:51.252Z,20.77
2018-01-14T17:42:19.085Z,14.07
2018-01-14T17:44:46.661Z,17.77
2018-01-14T17:47:14.407Z,10.17
2018-01-14T17:49:43.688Z,15.33
2018-01-14T17:52:11.327Z,9.83
2018-01-14T17:54:43.820Z,18.13
2018-01-14T17:57:11.811Z,14.70
2018-01-14T17:59:39.373Z,17.50
2018-01-14T18:02:06.973Z,18.25
2018-01-14T18:04:34.599Z,13.60
2018-01-14T18:07:02.169Z,16.43
2018-01-14T18:09:29.721Z,15.50
2018-01-14T18:11:57.415Z,13.83
2018-01-14T18:14:24.989Z,15.07
2018-01-14T18:17:00.519Z,17.23
2018-01-14T18:19:28.092Z,16.80
2018-01-14T18:21:55.674Z,11.90
2018-01-14T18:24:23.278Z,15.05
2018-01-14T18:26:50.860Z,17.63
2018-01-14T18:29:18.423Z,15.83
2018-01-14T18:31:46.030Z,11.13
2018-01-14T18:34:13.601Z,15.70
2018-01-14T18:36:41.177Z,11.70
2018-01-14T18:39:08.822Z,14.80
2018-01-14T18:41:36.382Z,17.12
2018-01-14T18:44:03.972Z,11.80
2018-01-14T18:46:31.578Z,16.90
2018-01-14T18:48:59.143Z,8.87
2018-01-14T18:51:26.710Z,17.00
2018-01-14T18:53:54.416Z,13.30
2018-01-14T18:56:21.999Z,15.88
2018-01-14T18:58:49.593Z,16.80
2018-01-14T19:01:17.170Z,11.87
2018-01-14T19:03:44.782Z,14.60
2018-01-14T19:06:12.364Z,14.47
2018-01-14T19:08:39.951Z,15.85
2018-01-14T19:11:07.553Z,10.87
2018-01-14T19:13:35.120Z,10.83
2018-01-14T19:16:02.707Z,12.20
2018-01-14T19:18:30.361Z,14.97
2018-01-14T19:20:57.967Z,13.73
2018-01-14T19:23:25.565Z,15.00
2018-01-14T19:25:53.429Z,16.83
2018-01-14T19:28:21.091Z,16.17
2018-01-14T19:30:48.705Z,16.47
2018-01-14T19:33:16.322Z,12.83
2018-01-14T19:35:43.909Z,10.93
2018-01-14T19:38:11.521Z,16.30
2018-01-14T19:40:39.103Z,16.00
2018-01-14T19:43:06.705Z,16.97
2018-01-14T19:45:34.289Z,13.80
2018-01-14T19:48:01.881Z,14.77
2018-01-14T19:50:29.458Z,16.70
2018-01-14T19:52:57.101Z,15.17
2018-01-14T19:55:24.786Z,13.93
2018-01-14T19:57:54.437Z,15.00
2018-01-14T20:00:22.036Z,21.20
2018-01-14T20:02:49.601Z,14.23
2018-01-14T20:05:17.182Z,16.00
2018-01-14T20:07:44.797Z,10.47
2018-01-14T20:10:12.381Z,13.50
2018-01-14T20:12:40.031Z,15.90
2018-01-14T20:15:07.631Z,16.00
2018-01-14T20:17:38.922Z,13.93
2018-01-14T20:20:06.717Z,16.42
2018-01-14T20:22:34.366Z,14.40
2018-01-14T20:25:01.981Z,9.97
2018-01-14T20:27:29.570Z,16.33
2018-01-14T20:29:57.144Z,12.93
2018-01-14T20:32:24.791Z,19.27
2018-01-14T20:34:52.351Z,27.00
2018-01-14T20:37:21.674Z,23.70
2018-01-14T20:39:49.288Z,16.55
2018-01-14T20:42:16.885Z,15.70
2018-01-14T20:44:50.258Z,15.93
2018-01-14T20:47:18.170Z,14.43
2018-01-14T20:49:46.215Z,14.23
2018-01-14T20:52:13.848Z,17.40
2018-01-14T20:54:41.414Z,14.20
2018-01-14T20:57:09.037Z,8.93
2018-01-14T20:59:37.404Z,15.13
2018-01-14T21:02:04.989Z,13.10
2018-01-14T21:04:32.574Z,14.13
2018-01-14T21:07:00.224Z,13.97
2018-01-14T21:09:27.838Z,15.37
2018-01-14T21:11:55.404Z,16.60
2018-01-14T21:14:23.036Z,14.30
2018-01-14T21:16:50.615Z,17.67
2018-01-14T21:19:18.185Z,16.17
2018-01-14T21:21:45.807Z,15.90
2018-01-14T21:24:13.376Z,9.60
2018-01-14T21:26:40.958Z,14.33
2018-01-14T21:29:08.568Z,8.13
2018-01-14T21:31:36.140Z,7.40
2018-01-14T21:34:03.752Z,9.27
2018-01-14T21:36:31.371Z,10.17
2018-01-14T21:38:58.965Z,15.77
2018-01-14T21:41:26.555Z,10.40
2018-01-14T21:43:54.268Z,13.30
2018-01-14T21:46:21.837Z,13.13
2018-01-14T21:48:49.405Z,11.50
2018-01-14T21:51:17.012Z,13.30
2018-01-14T21:53:44.594Z,12.77
2018-01-14T21:56:12.179Z,14.43
2018-01-14T21:58:39.775Z,13.70
2018-01-14T22:01:07.353Z,13.10
2018-01-14T22:03:34.935Z,15.45
2018-01-14T22:06:02.557Z,15.70
2018-01-14T22:08:30.146Z,13.90
2018-01-14T22:10:57.733Z,17.92
2018-01-14T22:13:25.347Z,15.77
2018-01-14T22:15:52.934Z,13.80
2018-01-14T22:18:20.526Z,10.67
2018-01-14T22:20:48.136Z,13.37
2018-01-14T22:23:15.696Z,14.33
2018-01-14T22:25:43.324Z,14.70
2018-01-14T22:28:10.944Z,11.90
2018-01-14T22:30:38.515Z,11.27
2018-01-14T22:33:06.090Z,13.57
2018-01-14T22:35:33.722Z,12.33
2018-01-14T22:38:01.312Z,12.80
2018-01-14T22:40:28.896Z,12.23
2018-01-14T22:42:56.577Z,11.10
2018-01-14T22:45:24.159Z,11.60
2018-01-14T22:47:51.754Z,7.20
2018-01-14T22:50:19.378Z,6.67
2018-01-14T22:52:46.998Z,12.70
2018-01-14T22:55:14.580Z,9.83
2018-01-14T22:57:42.208Z,9.97
2018-01-14T23:00:09.969Z,10.67
2018-01-14T23:02:37.533Z,8.73
2018-01-14T23:05:05.153Z,10.37
2018-01-14T23:07:32.736Z,11.88
2018-01-14T23:10:00.317Z,11.13
2018-01-14T23:12:27.949Z,11.13
2018-01-14T23:15:01.019Z,11.50
2018-01-14T23:17:28.632Z,12.63
2018-01-14T23:19:56.203Z,9.10
2018-01-14T23:22:23.763Z,7.93
2018-01-14T23:24:51.377Z,10.77
2018-01-14T23:27:18.947Z,7.37
2018-01-14T23:29:46.521Z,9.17
2018-01-14T23:32:14.118Z,9.50
2018-01-14T23:34:41.713Z,10.10
2018-01-14T23:37:09.287Z,13.53
2018-01-14T23:39:36.896Z,10.03
2018-01-14T23:42:04.481Z,8.17
2018-01-14T23:44:32.128Z,13.10
2018-01-14T23:46:59.734Z,9.87
2018-01-14T23:49:27.349Z,7.77
2018-01-14T23:51:54.918Z,12.83
2018-01-14T23:54:22.545Z,11.83
2018-01-14T23:56:50.120Z,12.53
2018-01-14T23:59:17.700Z,13.50
